createdAt,value
2022-12-27T00:01:29.483Z,101726.94
2022-12-27T00:03:56.321Z,101719.00
2022-12-27T00:06:23.762Z,101727.75
2022-12-27T00:08:50.360Z,101728.88
2022-12-27T00:11:19.425Z,101732.88
2022-12-27T00:13:46.161Z,101740.06
2022-12-27T00:16:14.023Z,101736.41
2022-12-27T00:18:41.060Z,101741.78
2022-12-27T00:21:08.128Z,101742.34
2022-12-27T00:23:37.240Z,101739.22
2022-12-27T00:26:04.768Z,101743.00
2022-12-27T00:28:32.142Z,101742.00
2022-12-27T00:30:58.973Z,101742.00
2022-12-27T00:33:25.742Z,101750.41
2022-12-27T00:35:52.169Z,101740.56
2022-12-27T00:38:18.683Z,101740.06
2022-12-27T00:40:45.015Z,101679.22
2022-12-27T00:43:11.466Z,101745.69
2022-12-27T00:45:37.856Z,101740.06
2022-12-27T00:48:04.475Z,101744.66
2022-12-27T00:50:31.211Z,101741.53
2022-12-27T00:52:57.658Z,101744.94
2022-12-27T00:55:24.047Z,101748.59
2022-12-27T00:57:50.440Z,101750.53
2022-12-27T01:00:16.998Z,101746.53
2022-12-27T01:02:43.397Z,101745.06
2022-12-27T01:05:09.904Z,101742.25
2022-12-27T01:07:36.292Z,101748.94
2022-12-27T01:10:02.761Z,101757.47
2022-12-27T01:12:32.478Z,101748.13
2022-12-27T01:14:58.769Z,101752.47
2022-12-27T01:17:25.116Z,101741.28
2022-12-27T01:19:51.515Z,101751.13
2022-12-27T01:22:17.851Z,101754.91
2022-12-27T01:24:44.161Z,101744.69
2022-12-27T01:27:10.518Z,101753.19
2022-12-27T01:29:36.826Z,101756.63
2022-12-27T01:32:03.168Z,101752.72
2022-12-27T01:34:29.612Z,101756.63
2022-12-27T01:36:55.994Z,101753.81
2022-12-27T01:39:22.342Z,101751.16
2022-12-27T01:42:07.488Z,101748.59
2022-12-27T01:44:40.013Z,101754.41
2022-12-27T01:47:14.250Z,101760.16
2022-12-27T01:49:41.945Z,101761.34
2022-12-27T01:52:09.481Z,101763.06
2022-12-27T01:54:36.028Z,101763.16
2022-12-27T01:57:02.799Z,101768.25
2022-12-27T01:59:34.330Z,101772.50
2022-12-27T02:02:07.335Z,101774.09
2022-12-27T02:04:36.107Z,101781.38
2022-12-27T02:07:05.251Z,101782.53
2022-12-27T02:09:38.720Z,101782.97
2022-12-27T02:12:09.738Z,101783.75
2022-12-27T02:14:47.562Z,101779.66
2022-12-27T02:17:22.486Z,101783.59
2022-12-27T02:19:56.033Z,101780.59
2022-12-27T02:23:07.379Z,101781.69
2022-12-27T02:25:50.511Z,101781.34
2022-12-27T02:28:22.210Z,101782.91
2022-12-27T02:30:55.492Z,101769.06
2022-12-27T02:33:32.789Z,101772.44
2022-12-27T02:36:07.533Z,101781.97
2022-12-27T02:38:37.389Z,101784.63
2022-12-27T02:41:28.915Z,101786.09
2022-12-27T02:44:25.295Z,101785.84
2022-12-27T02:47:16.772Z,101783.19
2022-12-27T02:50:03.575Z,101786.31
2022-12-27T02:52:59.926Z,101793.25
2022-12-27T02:56:07.123Z,101790.97
2022-12-27T02:58:41.157Z,101786.59
2022-12-27T03:01:36.697Z,101781.22
2022-12-27T03:04:05.576Z,101793.88
2022-12-27T03:06:42.250Z,101796.56
2022-12-27T03:09:52.227Z,101800.34
2022-12-27T03:12:43.329Z,101797.41
2022-12-27T03:15:48.327Z,101795.44
2022-12-27T03:18:19.183Z,101799.97
2022-12-27T03:21:05.482Z,101790.22
2022-12-27T03:23:51.594Z,101799.00
2022-12-27T03:26:19.426Z,101800.56
2022-12-27T03:29:05.203Z,101801.44
2022-12-27T03:31:53.867Z,101800.09
2022-12-27T03:34:31.886Z,101805.56
2022-12-27T03:37:37.034Z,101807.25
2022-12-27T03:40:06.882Z,101804.34
2022-12-27T03:42:55.884Z,101816.78
2022-12-27T03:45:42.618Z,101814.69
2022-12-27T03:48:10.933Z,101823.59
2022-12-27T03:50:49.050Z,101818.22
2022-12-27T03:53:18.805Z,101819.19
2022-12-27T03:55:45.310Z,101821.63
2022-12-27T03:58:11.933Z,101827.50
2022-12-27T04:00:39.076Z,101826.28
2022-12-27T04:03:05.604Z,101831.00
2022-12-27T04:05:32.022Z,101830.19
2022-12-27T04:08:17.110Z,101833.81
2022-12-27T04:11:02.442Z,101826.88
2022-12-27T04:13:47.649Z,101829.56
2022-12-27T04:16:32.956Z,101822.84
2022-12-27T04:19:18.354Z,101821.97
2022-12-27T04:22:03.552Z,101826.41
2022-12-27T04:24:48.785Z,101820.91
2022-12-27T04:27:33.854Z,101824.53
2022-12-27T04:30:19.123Z,101831.38
2022-12-27T04:33:04.259Z,101822.59
2022-12-27T04:35:30.734Z,101822.84
2022-12-27T04:37:57.440Z,101824.31
2022-12-27T04:40:42.536Z,101816.16
2022-12-27T04:43:27.750Z,101826.63
2022-12-27T04:46:13.056Z,101823.94
2022-12-27T04:48:58.289Z,101822.38
2022-12-27T04:51:43.748Z,101825.78
2022-12-27T04:54:49.186Z,101823.09
2022-12-27T04:57:35.963Z,101820.66
2022-12-27T05:00:22.660Z,101821.63
2022-12-27T05:02:56.832Z,101827.00
2022-12-27T05:05:25.631Z,101838.44
2022-12-27T05:08:23.461Z,101836.25
2022-12-27T05:11:08.631Z,101837.94
2022-12-27T05:13:53.834Z,101843.31
2022-12-27T05:16:20.272Z,101835.78
2022-12-27T05:18:46.741Z,101844.78
2022-12-27T05:21:13.250Z,101844.28
2022-12-27T05:24:04.898Z,101849.03
2022-12-27T05:26:32.627Z,101847.44
2022-12-27T05:28:59.352Z,101850.84
2022-12-27T05:31:26.893Z,101846.94
2022-12-27T05:33:53.532Z,101842.09
2022-12-27T05:36:20.329Z,101854.53
2022-12-27T05:38:47.080Z,101852.59
2022-12-27T05:41:13.408Z,101861.09
2022-12-27T05:43:39.994Z,101855.50
2022-12-27T05:46:13.828Z,101853.56
2022-12-27T05:48:40.677Z,101860.13
2022-12-27T05:51:11.653Z,101868.16
2022-12-27T05:53:38.219Z,101870.38
2022-12-27T05:56:04.608Z,101868.41
2022-12-27T05:58:31.348Z,101866.69
2022-12-27T06:00:58.292Z,101875.47
2022-12-27T06:03:25.028Z,101882.28
2022-12-27T06:05:51.433Z,101885.97
2022-12-27T06:08:17.812Z,101891.91
2022-12-27T06:10:44.221Z,101890.47
2022-12-27T06:13:10.529Z,101879.38
2022-12-27T06:15:36.871Z,101886.91
2022-12-27T06:18:03.584Z,101893.75
2022-12-27T06:20:30.247Z,101888.97
2022-12-27T06:22:58.204Z,101889.97
2022-12-27T06:25:24.504Z,101891.06
2022-12-27T06:27:50.813Z,101897.16
2022-12-27T06:30:17.295Z,101907.66
2022-12-27T06:32:43.584Z,101896.19
2022-12-27T06:35:11.105Z,101882.78
2022-12-27T06:37:37.396Z,101908.88
2022-12-27T06:40:03.965Z,101909.09
2022-12-27T06:42:30.760Z,101913.47
2022-12-27T06:44:57.108Z,101914.81
2022-12-27T06:47:23.526Z,101907.63
2022-12-27T06:49:50.020Z,101911.41
2022-12-27T06:52:16.633Z,101919.78
2022-12-27T06:54:42.996Z,101911.88
2022-12-27T06:57:09.327Z,101915.66
2022-12-27T06:59:35.701Z,101913.31
2022-12-27T07:02:02.240Z,101912.69
2022-12-27T07:04:28.744Z,101915.63
2022-12-27T07:06:55.105Z,101928.03
2022-12-27T07:09:21.426Z,101932.88
2022-12-27T07:11:47.925Z,101935.44
2022-12-27T07:14:14.295Z,101940.91
2022-12-27T07:16:40.679Z,101951.13
2022-12-27T07:19:07.064Z,101947.81
2022-12-27T07:21:33.447Z,101950.47
2022-12-27T07:23:59.866Z,101956.94
2022-12-27T07:26:29.660Z,101954.03
2022-12-27T07:28:57.644Z,101956.75
2022-12-27T07:31:26.316Z,101954.47
2022-12-27T07:33:52.921Z,101951.81
2022-12-27T07:36:39.083Z,101952.03
2022-12-27T07:39:24.071Z,101957.75
2022-12-27T07:42:08.961Z,101962.66
2022-12-27T07:44:48.731Z,101971.56
2022-12-27T07:47:18.464Z,101971.09
2022-12-27T07:49:48.057Z,101976.47
2022-12-27T07:52:25.927Z,101981.56
2022-12-27T07:54:54.708Z,101981.72
2022-12-27T07:57:44.472Z,101984.53
2022-12-27T08:00:31.669Z,101992.53
2022-12-27T08:03:08.057Z,101989.72
2022-12-27T08:05:57.484Z,101991.09
2022-12-27T08:08:45.767Z,101997.16
2022-12-27T08:11:14.414Z,101999.94
2022-12-27T08:13:59.121Z,101993.31
2022-12-27T08:16:48.868Z,102000.59
2022-12-27T08:19:34.311Z,102003.25
2022-12-27T08:22:09.723Z,101995.47
2022-12-27T08:24:48.612Z,102000.34
2022-12-27T08:27:41.602Z,102003.38
2022-12-27T08:30:42.147Z,101998.16
2022-12-27T08:33:29.255Z,101988.69
2022-12-27T08:36:45.068Z,102000.38
2022-12-27T08:39:22.696Z,102003.06
2022-12-27T08:42:15.699Z,101991.03
2022-12-27T08:45:05.946Z,101988.00
2022-12-27T08:47:59.446Z,101988.38
2022-12-27T08:50:50.602Z,101991.44
2022-12-27T08:53:29.150Z,101995.34
2022-12-27T08:55:59.171Z,101998.53
2022-12-27T08:58:48.227Z,101999.75
2022-12-27T09:01:18.182Z,102003.94
2022-12-27T09:03:48.288Z,101995.91
2022-12-27T09:06:19.209Z,102009.78
2022-12-27T09:08:46.454Z,102003.47
2022-12-27T09:11:18.000Z,102017.84
2022-12-27T09:13:46.144Z,102009.47
2022-12-27T09:16:19.932Z,102015.16
2022-12-27T09:18:49.626Z,102013.47
2022-12-27T09:21:21.171Z,102008.69
2022-12-27T09:23:49.157Z,102016.91
2022-12-27T09:26:19.659Z,102010.06
2022-12-27T09:28:47.387Z,102013.09
2022-12-27T09:31:14.921Z,102011.03
2022-12-27T09:34:03.103Z,102022.34
2022-12-27T09:36:33.345Z,102025.41
2022-12-27T09:39:03.828Z,102022.47
2022-12-27T09:45:00.861Z,102019.78
2022-12-27T09:47:46.328Z,102023.66
2022-12-27T09:50:20.575Z,102026.84
2022-12-27T09:52:57.385Z,102016.31
2022-12-27T09:55:41.582Z,102013.13
2022-12-27T09:58:23.444Z,102020.81
2022-12-27T10:00:52.770Z,102017.13
2022-12-27T10:03:27.514Z,102016.38
2022-12-27T10:06:07.631Z,102016.97
2022-12-27T10:08:35.043Z,102004.41
2022-12-27T10:11:38.646Z,102012.09
2022-12-27T10:14:13.726Z,102011.09
2022-12-27T10:16:53.752Z,102004.47
2022-12-27T10:19:33.458Z,102008.59
2022-12-27T10:22:09.453Z,102011.53
2022-12-27T10:24:44.110Z,102011.00
2022-12-27T10:27:25.641Z,102009.75
2022-12-27T10:29:53.175Z,102009.63
2022-12-27T10:32:24.248Z,102005.09
2022-12-27T10:34:55.879Z,102001.19
2022-12-27T10:37:25.477Z,102009.00
2022-12-27T10:39:55.243Z,102007.88
2022-12-27T10:42:32.079Z,102008.69
2022-12-27T10:45:19.713Z,102004.78
2022-12-27T10:47:47.346Z,102000.84
2022-12-27T10:50:19.768Z,102000.72
2022-12-27T10:52:50.216Z,102002.69
2022-12-27T10:55:33.380Z,102000.00
2022-12-27T10:58:21.492Z,101995.91
2022-12-27T11:00:55.046Z,101992.19
2022-12-27T11:03:26.326Z,101996.25
2022-12-27T11:06:04.003Z,101994.72
2022-12-27T11:08:30.606Z,101984.59
2022-12-27T11:11:13.634Z,101989.38
2022-12-27T11:13:40.479Z,101987.16
2022-12-27T11:16:13.893Z,101987.19
2022-12-27T11:18:45.004Z,101989.31
2022-12-27T11:21:21.196Z,101982.13
2022-12-27T11:23:54.480Z,101993.50
2022-12-27T11:26:24.134Z,101988.25
2022-12-27T11:28:54.541Z,101996.91
2022-12-27T11:31:30.246Z,101995.06
2022-12-27T11:33:58.468Z,101993.78
2022-12-27T11:36:32.499Z,101997.59
2022-12-27T11:39:00.600Z,101996.34
2022-12-27T11:41:37.387Z,101997.06
2022-12-27T11:44:10.648Z,101995.78
2022-12-27T11:46:41.557Z,101992.81
2022-12-27T11:49:12.125Z,101993.50
2022-12-27T11:51:41.470Z,101989.09
2022-12-27T11:54:13.856Z,101997.75
2022-12-27T11:57:06.723Z,101994.78
2022-12-27T11:59:33.258Z,102001.56
2022-12-27T12:02:18.581Z,101999.44
2022-12-27T12:04:57.291Z,101989.78
2022-12-27T12:07:35.962Z,101990.75
2022-12-27T12:10:21.039Z,101985.81
2022-12-27T12:12:50.266Z,101988.66
2022-12-27T12:15:35.246Z,101988.66
2022-12-27T12:18:15.941Z,101974.78
2022-12-27T12:20:47.174Z,101977.63
2022-12-27T12:23:26.774Z,101970.66
2022-12-27T12:26:21.752Z,101960.03
2022-12-27T12:29:10.139Z,101959.91
2022-12-27T12:31:55.183Z,101958.03
2022-12-27T12:34:41.477Z,101950.38
2022-12-27T12:37:20.273Z,101949.53
2022-12-27T12:39:56.761Z,101947.53
2022-12-27T12:42:48.291Z,101949.25
2022-12-27T12:45:18.688Z,101948.09
2022-12-27T12:47:56.745Z,101945.97
2022-12-27T12:50:33.384Z,101945.00
2022-12-27T12:53:13.742Z,101946.69
2022-12-27T12:55:45.689Z,101939.84
2022-12-27T12:58:12.891Z,101944.41
2022-12-27T13:00:47.999Z,101938.41
2022-12-27T13:03:43.348Z,101932.44
2022-12-27T13:06:37.731Z,101922.53
2022-12-27T13:09:17.109Z,101917.38
2022-12-27T13:12:06.789Z,101917.94
2022-12-27T13:14:49.711Z,101909.72
2022-12-27T13:17:29.521Z,101912.94
2022-12-27T13:20:28.459Z,101913.22
2022-12-27T13:23:07.235Z,101914.63
2022-12-27T13:25:50.945Z,101912.94
2022-12-27T13:28:36.460Z,101908.94
2022-12-27T13:31:05.707Z,101902.38
2022-12-27T13:33:32.111Z,101901.81
2022-12-27T13:36:09.926Z,101903.91
2022-12-27T13:38:42.130Z,101900.22
2022-12-27T13:41:28.054Z,101893.50
2022-12-27T13:44:12.080Z,101890.38
2022-12-27T13:46:57.340Z,101890.66
2022-12-27T13:49:30.261Z,101889.38
2022-12-27T13:52:02.321Z,101881.56
2022-12-27T13:54:44.917Z,101877.69
2022-12-27T13:57:26.627Z,101882.06
2022-12-27T14:00:00.020Z,101883.09
2022-12-27T14:02:32.767Z,101879.84
2022-12-27T14:05:02.532Z,101873.75
2022-12-27T14:07:38.184Z,101873.47
2022-12-27T14:10:17.192Z,101866.81
2022-12-27T14:12:55.089Z,101865.25
2022-12-27T14:15:23.981Z,101868.13
2022-12-27T14:17:53.445Z,101867.44
2022-12-27T14:20:39.917Z,101872.97
2022-12-27T14:23:16.465Z,101868.16
2022-12-27T14:25:42.806Z,101873.56
2022-12-27T14:28:18.538Z,101873.84
2022-12-27T14:31:05.408Z,101870.06
2022-12-27T14:33:50.556Z,101863.28
2022-12-27T14:36:23.421Z,101873.78
2022-12-27T14:39:19.217Z,101875.09
2022-12-27T14:42:04.174Z,101868.16
2022-12-27T14:44:42.845Z,101868.88
2022-12-27T14:47:28.554Z,101875.00
2022-12-27T14:50:15.382Z,101866.50
2022-12-27T14:53:00.774Z,101861.25
2022-12-27T14:55:35.939Z,101867.47
2022-12-27T14:58:29.409Z,101864.66
2022-12-27T15:01:29.604Z,101872.91
2022-12-27T15:04:18.896Z,101874.06
2022-12-27T15:07:23.443Z,101874.34
2022-12-27T15:10:33.582Z,101867.84
2022-12-27T15:13:11.787Z,101863.28
2022-12-27T15:15:47.375Z,101871.94
2022-12-27T15:19:07.431Z,101872.53
2022-12-27T15:21:46.512Z,101855.66
2022-12-27T15:24:52.662Z,101876.09
2022-12-27T15:27:52.437Z,101868.28
2022-12-27T15:31:03.734Z,101874.53
2022-12-27T15:34:11.718Z,101866.16
2022-12-27T15:36:43.069Z,101862.63
2022-12-27T15:39:33.704Z,101853.94
2022-12-27T15:42:00.207Z,101852.13
2022-12-27T15:44:45.573Z,101851.41
2022-12-27T15:47:35.470Z,101845.59
2022-12-27T15:50:01.991Z,101844.34
2022-12-27T15:52:39.254Z,101832.69
2022-12-27T15:55:14.465Z,101830.16
2022-12-27T15:57:44.177Z,101842.88
2022-12-27T16:00:10.600Z,101843.63
2022-12-27T16:02:49.220Z,101850.28
2022-12-27T16:05:18.931Z,101839.22
2022-12-27T16:07:51.411Z,101840.34
2022-12-27T16:10:30.193Z,101842.63
2022-12-27T16:13:15.522Z,101838.38
2022-12-27T16:15:47.517Z,101842.88
2022-12-27T16:18:17.610Z,101838.22
2022-12-27T16:21:02.972Z,101845.72
2022-12-27T16:23:31.940Z,101841.47
2022-12-27T16:26:04.420Z,101846.28
2022-12-27T16:28:32.102Z,101842.88
2022-12-27T16:31:00.838Z,101846.00
2022-12-27T16:33:27.442Z,101849.69
2022-12-27T16:36:04.332Z,101846.50
2022-12-27T16:38:32.522Z,101851.75
2022-12-27T16:41:12.800Z,101842.28
2022-12-27T16:43:49.130Z,101841.69
2022-12-27T16:46:19.666Z,101839.44
2022-12-27T16:48:46.285Z,101829.81
2022-12-27T16:51:16.069Z,101833.69
2022-12-27T16:53:58.069Z,101832.69
2022-12-27T16:56:29.814Z,101834.78
2022-12-27T16:58:56.835Z,101839.72
2022-12-27T17:01:26.669Z,101849.63
2022-12-27T17:03:54.395Z,101856.28
2022-12-27T17:06:32.708Z,101853.44
2022-12-27T17:09:10.449Z,101853.44
2022-12-27T17:11:41.387Z,101846.50
2022-12-27T17:14:27.913Z,101845.91
2022-12-27T17:17:09.125Z,101844.22
2022-12-27T17:19:38.598Z,101851.41
2022-12-27T17:22:10.673Z,101842.34
2022-12-27T17:24:37.148Z,101847.72
2022-12-27T17:27:16.112Z,101845.63
2022-12-27T17:29:49.012Z,101846.72
2022-12-27T17:32:34.434Z,101845.16
2022-12-27T17:35:00.853Z,101836.81
2022-12-27T17:37:30.530Z,101836.06
2022-12-27T17:40:12.244Z,101829.41
2022-12-27T17:43:02.172Z,101820.47
2022-12-27T17:45:34.246Z,101831.09
2022-12-27T17:48:12.606Z,101834.53
2022-12-27T17:50:42.205Z,101824.56
2022-12-27T17:53:30.385Z,101835.59
2022-12-27T17:56:20.208Z,101813.53
2022-12-27T17:58:46.676Z,101819.16
2022-12-27T18:01:13.765Z,101825.91
2022-12-27T18:03:42.974Z,101817.28
2022-12-27T18:06:09.465Z,101825.91
2022-12-27T18:08:36.960Z,101828.44
2022-12-27T18:11:05.189Z,101821.09
2022-12-27T18:13:33.149Z,101816.81
2022-12-27T18:16:00.993Z,101818.41
2022-12-27T18:18:31.916Z,101821.66
2022-12-27T18:20:59.947Z,101820.25
2022-12-27T18:23:26.820Z,101809.78
2022-12-27T18:25:53.257Z,101808.09
2022-12-27T18:28:33.550Z,101800.47
2022-12-27T18:31:03.466Z,101798.47
2022-12-27T18:33:48.855Z,101786.91
2022-12-27T18:36:34.302Z,101782.41
2022-12-27T18:39:24.097Z,101778.59
2022-12-27T18:41:51.855Z,101776.47
2022-12-27T18:44:26.581Z,101768.25
2022-12-27T18:46:55.014Z,101767.97
2022-12-27T18:49:24.144Z,101765.41
2022-12-27T18:51:51.018Z,101768.84
2022-12-27T18:54:29.835Z,101772.88
2022-12-27T18:56:57.297Z,101766.97
2022-12-27T18:59:27.786Z,101760.31
2022-12-27T19:01:59.401Z,101755.75
2022-12-27T19:04:28.383Z,101758.88
2022-12-27T19:06:54.977Z,101749.81
2022-12-27T19:09:23.569Z,101734.25
2022-12-27T19:11:55.451Z,101732.81
2022-12-27T19:14:22.751Z,101747.53
2022-12-27T19:16:52.640Z,101743.28
2022-12-27T19:19:24.475Z,101738.19
2022-12-27T19:21:50.959Z,101730.81
2022-12-27T19:24:28.637Z,101724.28
2022-12-27T19:26:55.926Z,101722.06
2022-12-27T19:29:23.570Z,101714.13
2022-12-27T19:32:17.623Z,101709.75
2022-12-27T19:34:45.863Z,101708.72
2022-12-27T19:37:12.365Z,101696.25
2022-12-27T19:39:40.078Z,101695.69
2022-12-27T19:42:07.879Z,101688.88
2022-12-27T19:44:34.389Z,101694.25
2022-12-27T19:47:00.789Z,101697.94
2022-12-27T19:49:44.629Z,101695.09
2022-12-27T19:52:26.937Z,101694.22
2022-12-27T19:54:58.126Z,101685.47
2022-12-27T19:57:25.117Z,101682.84
2022-12-27T19:59:52.388Z,101677.22
2022-12-27T20:02:21.130Z,101675.81
2022-12-27T20:04:48.381Z,101674.13
2022-12-27T20:07:23.551Z,101675.81
2022-12-27T20:09:50.216Z,101679.63
2022-12-27T20:12:16.936Z,101683.44
2022-12-27T20:14:43.299Z,101685.69
2022-12-27T20:17:10.012Z,101684.56
2022-12-27T20:19:36.360Z,101677.34
2022-12-27T20:22:02.797Z,101672.97
2022-12-27T20:24:31.399Z,101670.28
2022-12-27T20:26:57.742Z,101673.97
2022-12-27T20:29:24.231Z,101672.13
2022-12-27T20:31:52.083Z,101667.16
2022-12-27T20:34:18.624Z,101674.03
2022-12-27T20:36:45.075Z,101668.94
2022-12-27T20:39:11.444Z,101663.84
2022-12-27T20:41:37.832Z,101656.78
2022-12-27T20:44:04.378Z,101657.81
2022-12-27T20:46:50.999Z,101659.66
2022-12-27T20:49:35.910Z,101650.00
2022-12-27T20:52:24.305Z,101650.59
2022-12-27T20:55:13.694Z,101640.13
2022-12-27T20:57:43.360Z,101643.81
2022-12-27T21:00:11.243Z,101644.78
2022-12-27T21:02:38.967Z,101637.28
2022-12-27T21:05:06.228Z,101645.34
2022-12-27T21:07:32.671Z,101639.25
2022-12-27T21:09:59.092Z,101636.28
2022-12-27T21:12:25.476Z,101630.78
2022-12-27T21:14:52.274Z,101628.09
2022-12-27T21:17:18.733Z,101633.22
2022-12-27T21:19:45.155Z,101624.03
2022-12-27T21:22:11.532Z,101631.34
2022-12-27T21:24:38.051Z,101625.28
2022-12-27T21:27:04.666Z,101622.59
2022-12-27T21:29:31.023Z,101612.81
2022-12-27T21:31:57.368Z,101613.25
2022-12-27T21:34:23.878Z,101618.91
2022-12-27T21:36:51.872Z,101608.59
2022-12-27T21:39:18.285Z,101597.84
2022-12-27T21:41:44.866Z,101595.16
2022-12-27T21:44:11.244Z,101581.34
2022-12-27T21:46:42.107Z,101579.63
2022-12-27T21:49:13.119Z,101583.59
2022-12-27T21:51:41.018Z,101586.03
2022-12-27T21:54:07.991Z,101577.97
2022-12-27T21:56:35.652Z,101572.06
2022-12-27T21:59:05.334Z,101564.56
2022-12-27T22:01:51.182Z,101561.19
2022-12-27T22:04:20.249Z,101547.31
2022-12-27T22:06:47.896Z,101546.47
2022-12-27T22:09:15.429Z,101535.47
2022-12-27T22:11:42.229Z,101545.47
2022-12-27T22:14:09.045Z,101533.88
2022-12-27T22:16:36.742Z,101538.16
2022-12-27T22:19:08.080Z,101530.50
2022-12-27T22:21:34.961Z,101529.38
2022-12-27T22:24:02.181Z,101526.53
2022-12-27T22:26:30.284Z,101527.13
2022-12-27T22:28:57.200Z,101523.72
2022-12-27T22:31:25.304Z,101517.47
2022-12-27T22:34:05.039Z,101524.72
2022-12-27T22:36:31.593Z,101515.94
2022-12-27T22:38:58.690Z,101516.34
2022-12-27T22:41:29.686Z,101508.28
2022-12-27T22:43:57.493Z,101505.34
2022-12-27T22:46:24.076Z,101501.66
2022-12-27T22:48:55.039Z,101492.50
2022-12-27T22:51:24.912Z,101491.19
2022-12-27T22:53:51.615Z,101479.19
2022-12-27T22:56:19.493Z,101475.38
2022-12-27T22:58:46.118Z,101471.53
2022-12-27T23:01:17.432Z,101460.53
2022-12-27T23:03:44.261Z,101464.47
2022-12-27T23:06:13.855Z,101452.19
2022-12-27T23:08:41.290Z,101447.94
2022-12-27T23:11:12.566Z,101443.16
2022-12-27T23:13:39.049Z,101440.88
2022-12-27T23:16:05.672Z,101428.00
2022-12-27T23:18:32.168Z,101432.13
2022-12-27T23:21:21.557Z,101430.97
2022-12-27T23:23:45.614Z,101426.84
2022-12-27T23:26:16.730Z,101414.28
2022-12-27T23:28:43.817Z,101406.75
2022-12-27T23:31:11.252Z,101400.09
2022-12-27T23:33:38.363Z,101397.41
2022-12-27T23:36:04.819Z,101388.09
2022-12-27T23:38:31.225Z,101384.41
2022-12-27T23:41:02.170Z,101376.88
2022-12-27T23:43:51.810Z,101372.38
2022-12-27T23:46:18.684Z,101361.31
2022-12-27T23:48:45.666Z,101358.63
2022-12-27T23:51:12.915Z,101341.66
2022-12-27T23:53:39.566Z,101344.03
2022-12-27T23:56:06.114Z,101340.53
2022-12-27T23:58:32.911Z,101332.75
